sensor_id;sensor_type;location;lat;lon;timestamp;temperature;humidity
48162;DHT22;33950;48.154;16.316;2024-02-14T00:01:18;6.60;97.30
48162;DHT22;33950;48.154;16.316;2024-02-14T00:03:44;6.60;97.30
48162;DHT22;33950;48.154;16.316;2024-02-14T00:06:09;6.50;97.40
48162;DHT22;33950;48.154;16.316;2024-02-14T00:08:37;6.50;97.40
48162;DHT22;33950;48.154;16.316;2024-02-14T00:11:03;6.50;97.50
48162;DHT22;33950;48.154;16.316;2024-02-14T00:13:29;6.50;97.50
48162;DHT22;33950;48.154;16.316;2024-02-14T00:15:56;6.40;97.60
48162;DHT22;33950;48.154;16.316;2024-02-14T00:18:22;6.40;97.60
48162;DHT22;33950;48.154;16.316;2024-02-14T00:20:48;6.50;97.60
48162;DHT22;33950;48.154;16.316;2024-02-14T00:23:13;6.40;97.60
48162;DHT22;33950;48.154;16.316;2024-02-14T00:25:39;6.50;97.70
48162;DHT22;33950;48.154;16.316;2024-02-14T00:28:05;6.40;97.70
48162;DHT22;33950;48.154;16.316;2024-02-14T00:30:31;6.40;97.70
48162;DHT22;33950;48.154;16.316;2024-02-14T00:32:58;6.40;97.80
48162;DHT22;33950;48.154;16.316;2024-02-14T00:35:23;6.40;97.80
48162;DHT22;33950;48.154;16.316;2024-02-14T00:37:49;6.30;97.90
48162;DHT22;33950;48.154;16.316;2024-02-14T00:40:15;6.30;98.10
48162;DHT22;33950;48.154;16.316;2024-02-14T00:42:40;6.20;98.20
48162;DHT22;33950;48.154;16.316;2024-02-14T00:45:06;6.20;98.10
48162;DHT22;33950;48.154;16.316;2024-02-14T00:47:34;6.20;98.20
48162;DHT22;33950;48.154;16.316;2024-02-14T00:50:01;6.30;98.20
48162;DHT22;33950;48.154;16.316;2024-02-14T00:52:26;6.30;98.10
48162;DHT22;33950;48.154;16.316;2024-02-14T00:54:52;6.30;98.10
48162;DHT22;33950;48.154;16.316;2024-02-14T00:57:17;6.40;98.10
48162;DHT22;33950;48.154;16.316;2024-02-14T00:59:44;6.40;98.00
48162;DHT22;33950;48.154;16.316;2024-02-14T01:02:10;6.40;98.00
48162;DHT22;33950;48.154;16.316;2024-02-14T01:04:35;6.40;98.00
48162;DHT22;33950;48.154;16.316;2024-02-14T01:07:03;6.40;98.00
48162;DHT22;33950;48.154;16.316;2024-02-14T01:09:28;6.40;98.00
48162;DHT22;33950;48.154;16.316;2024-02-14T01:11:54;6.40;97.90
48162;DHT22;33950;48.154;16.316;2024-02-14T01:14:20;6.40;97.90
48162;DHT22;33950;48.154;16.316;2024-02-14T01:16:47;6.50;97.90
48162;DHT22;33950;48.154;16.316;2024-02-14T01:19:13;6.50;97.90
48162;DHT22;33950;48.154;16.316;2024-02-14T01:21:39;6.50;97.80
48162;DHT22;33950;48.154;16.316;2024-02-14T01:24:06;6.60;97.80
48162;DHT22;33950;48.154;16.316;2024-02-14T01:26:34;6.50;97.80
48162;DHT22;33950;48.154;16.316;2024-02-14T01:28:59;6.50;97.80
48162;DHT22;33950;48.154;16.316;2024-02-14T01:31:28;6.40;97.80
48162;DHT22;33950;48.154;16.316;2024-02-14T01:33:55;6.40;97.90
48162;DHT22;33950;48.154;16.316;2024-02-14T01:36:21;6.40;97.90
48162;DHT22;33950;48.154;16.316;2024-02-14T01:38:47;6.40;97.90
48162;DHT22;33950;48.154;16.316;2024-02-14T01:41:14;6.30;98.00
48162;DHT22;33950;48.154;16.316;2024-02-14T01:43:40;6.30;98.00
48162;DHT22;33950;48.154;16.316;2024-02-14T01:46:05;6.30;98.10
48162;DHT22;33950;48.154;16.316;2024-02-14T01:48:31;6.20;98.10
48162;DHT22;33950;48.154;16.316;2024-02-14T01:50:57;6.10;98.10
48162;DHT22;33950;48.154;16.316;2024-02-14T01:53:23;6.10;98.20
48162;DHT22;33950;48.154;16.316;2024-02-14T01:55:48;6.10;98.30
48162;DHT22;33950;48.154;16.316;2024-02-14T01:58:15;6.10;98.20
48162;DHT22;33950;48.154;16.316;2024-02-14T02:00:41;6.10;98.30
48162;DHT22;33950;48.154;16.316;2024-02-14T02:03:07;6.00;98.30
48162;DHT22;33950;48.154;16.316;2024-02-14T02:05:34;5.90;98.40
48162;DHT22;33950;48.154;16.316;2024-02-14T02:07:59;5.90;98.50
48162;DHT22;33950;48.154;16.316;2024-02-14T02:10:25;5.70;98.50
48162;DHT22;33950;48.154;16.316;2024-02-14T02:12:57;5.70;98.60
48162;DHT22;33950;48.154;16.316;2024-02-14T02:15:24;5.70;98.70
48162;DHT22;33950;48.154;16.316;2024-02-14T02:17:50;5.70;98.80
48162;DHT22;33950;48.154;16.316;2024-02-14T02:20:18;5.70;98.90
48162;DHT22;33950;48.154;16.316;2024-02-14T02:22:46;5.70;98.90
48162;DHT22;33950;48.154;16.316;2024-02-14T02:25:13;5.70;98.90
48162;DHT22;33950;48.154;16.316;2024-02-14T02:27:39;5.60;99.00
48162;DHT22;33950;48.154;16.316;2024-02-14T02:30:05;5.60;99.00
48162;DHT22;33950;48.154;16.316;2024-02-14T02:32:30;5.60;99.00
48162;DHT22;33950;48.154;16.316;2024-02-14T02:34:56;5.70;99.00
48162;DHT22;33950;48.154;16.316;2024-02-14T02:37:23;5.60;99.00
48162;DHT22;33950;48.154;16.316;2024-02-14T02:39:50;5.60;99.20
48162;DHT22;33950;48.154;16.316;2024-02-14T02:42:16;5.60;99.10
48162;DHT22;33950;48.154;16.316;2024-02-14T02:44:42;5.60;99.20
48162;DHT22;33950;48.154;16.316;2024-02-14T02:47:07;5.60;99.20
48162;DHT22;33950;48.154;16.316;2024-02-14T02:49:34;5.60;99.30
48162;DHT22;33950;48.154;16.316;2024-02-14T02:52:02;5.50;99.30
48162;DHT22;33950;48.154;16.316;2024-02-14T02:54:28;5.50;99.30
48162;DHT22;33950;48.154;16.316;2024-02-14T02:56:55;5.50;99.40
48162;DHT22;33950;48.154;16.316;2024-02-14T02:59:20;5.50;99.40
48162;DHT22;33950;48.154;16.316;2024-02-14T03:01:47;5.50;99.40
48162;DHT22;33950;48.154;16.316;2024-02-14T03:04:14;5.50;99.30
48162;DHT22;33950;48.154;16.316;2024-02-14T03:06:40;5.50;99.30
48162;DHT22;33950;48.154;16.316;2024-02-14T03:09:06;5.50;99.30
48162;DHT22;33950;48.154;16.316;2024-02-14T03:11:32;5.50;99.40
48162;DHT22;33950;48.154;16.316;2024-02-14T03:13:59;5.60;99.40
48162;DHT22;33950;48.154;16.316;2024-02-14T03:16:25;5.60;99.20
48162;DHT22;33950;48.154;16.316;2024-02-14T03:18:52;5.70;99.10
48162;DHT22;33950;48.154;16.316;2024-02-14T03:21:19;5.70;99.10
48162;DHT22;33950;48.154;16.316;2024-02-14T03:23:44;5.50;99.10
48162;DHT22;33950;48.154;16.316;2024-02-14T03:26:11;5.50;99.10
48162;DHT22;33950;48.154;16.316;2024-02-14T03:28:36;5.50;99.20
48162;DHT22;33950;48.154;16.316;2024-02-14T03:31:03;5.50;99.30
48162;DHT22;33950;48.154;16.316;2024-02-14T03:33:30;5.40;99.20
48162;DHT22;33950;48.154;16.316;2024-02-14T03:35:55;5.40;99.30
48162;DHT22;33950;48.154;16.316;2024-02-14T03:38:24;5.40;99.40
48162;DHT22;33950;48.154;16.316;2024-02-14T03:40:50;5.50;99.40
48162;DHT22;33950;48.154;16.316;2024-02-14T03:43:15;5.60;99.20
48162;DHT22;33950;48.154;16.316;2024-02-14T03:45:41;5.70;99.10
48162;DHT22;33950;48.154;16.316;2024-02-14T03:48:08;5.70;99.00
48162;DHT22;33950;48.154;16.316;2024-02-14T03:50:38;5.80;98.90
48162;DHT22;33950;48.154;16.316;2024-02-14T03:53:03;5.80;98.80
48162;DHT22;33950;48.154;16.316;2024-02-14T03:55:29;5.80;98.40
48162;DHT22;33950;48.154;16.316;2024-02-14T03:57:55;5.80;98.60
48162;DHT22;33950;48.154;16.316;2024-02-14T04:00:21;5.80;98.50
48162;DHT22;33950;48.154;16.316;2024-02-14T04:02:47;5.70;98.50
48162;DHT22;33950;48.154;16.316;2024-02-14T04:05:15;5.70;98.50
48162;DHT22;33950;48.154;16.316;2024-02-14T04:07:41;5.60;98.60
48162;DHT22;33950;48.154;16.316;2024-02-14T04:10:09;5.60;98.60
48162;DHT22;33950;48.154;16.316;2024-02-14T04:12:35;5.60;98.70
48162;DHT22;33950;48.154;16.316;2024-02-14T04:15:01;5.60;98.80
48162;DHT22;33950;48.154;16.316;2024-02-14T04:17:26;5.60;98.80
48162;DHT22;33950;48.154;16.316;2024-02-14T04:19:52;5.50;98.80
48162;DHT22;33950;48.154;16.316;2024-02-14T04:22:19;5.40;98.90
48162;DHT22;33950;48.154;16.316;2024-02-14T04:24:45;5.40;99.00
48162;DHT22;33950;48.154;16.316;2024-02-14T04:27:11;5.40;99.10
48162;DHT22;33950;48.154;16.316;2024-02-14T04:29:36;5.40;99.00
48162;DHT22;33950;48.154;16.316;2024-02-14T04:32:02;5.50;98.90
48162;DHT22;33950;48.154;16.316;2024-02-14T04:34:28;5.50;98.90
48162;DHT22;33950;48.154;16.316;2024-02-14T04:36:53;5.40;98.80
48162;DHT22;33950;48.154;16.316;2024-02-14T04:39:20;5.30;98.80
48162;DHT22;33950;48.154;16.316;2024-02-14T04:41:46;5.10;99.10
48162;DHT22;33950;48.154;16.316;2024-02-14T04:44:12;5.10;99.40
48162;DHT22;33950;48.154;16.316;2024-02-14T04:46:37;5.10;99.40
48162;DHT22;33950;48.154;16.316;2024-02-14T04:49:08;5.10;99.40
48162;DHT22;33950;48.154;16.316;2024-02-14T04:51:35;5.10;99.30
48162;DHT22;33950;48.154;16.316;2024-02-14T04:54:00;5.20;99.30
48162;DHT22;33950;48.154;16.316;2024-02-14T04:56:27;5.10;99.30
48162;DHT22;33950;48.154;16.316;2024-02-14T04:58:53;5.00;99.30
48162;DHT22;33950;48.154;16.316;2024-02-14T05:01:20;4.90;99.50
48162;DHT22;33950;48.154;16.316;2024-02-14T05:03:45;4.90;99.60
48162;DHT22;33950;48.154;16.316;2024-02-14T05:06:11;5.00;99.70
48162;DHT22;33950;48.154;16.316;2024-02-14T05:08:37;5.00;99.70
48162;DHT22;33950;48.154;16.316;2024-02-14T05:11:02;5.10;99.60
48162;DHT22;33950;48.154;16.316;2024-02-14T05:13:30;5.10;99.60
48162;DHT22;33950;48.154;16.316;2024-02-14T05:15:56;5.20;99.50
48162;DHT22;33950;48.154;16.316;2024-02-14T05:18:22;5.20;99.40
48162;DHT22;33950;48.154;16.316;2024-02-14T05:20:47;5.20;99.40
48162;DHT22;33950;48.154;16.316;2024-02-14T05:23:13;5.20;99.30
48162;DHT22;33950;48.154;16.316;2024-02-14T05:25:39;5.20;99.30
48162;DHT22;33950;48.154;16.316;2024-02-14T05:28:05;5.20;99.40
48162;DHT22;33950;48.154;16.316;2024-02-14T05:30:32;5.20;99.40
48162;DHT22;33950;48.154;16.316;2024-02-14T05:32:57;5.10;99.40
48162;DHT22;33950;48.154;16.316;2024-02-14T05:35:23;4.90;99.30
48162;DHT22;33950;48.154;16.316;2024-02-14T05:37:49;4.70;99.50
48162;DHT22;33950;48.154;16.316;2024-02-14T05:40:15;4.70;99.80
48162;DHT22;33950;48.154;16.316;2024-02-14T05:42:40;4.70;99.90
48162;DHT22;33950;48.154;16.316;2024-02-14T05:45:06;4.60;99.90
48162;DHT22;33950;48.154;16.316;2024-02-14T05:47:36;4.50;99.90
48162;DHT22;33950;48.154;16.316;2024-02-14T05:50:02;4.40;99.90
48162;DHT22;33950;48.154;16.316;2024-02-14T05:52:27;4.40;99.90
48162;DHT22;33950;48.154;16.316;2024-02-14T05:54:53;4.30;99.90
48162;DHT22;33950;48.154;16.316;2024-02-14T05:57:19;4.40;99.90
48162;DHT22;33950;48.154;16.316;2024-02-14T05:59:45;4.50;99.90
48162;DHT22;33950;48.154;16.316;2024-02-14T06:02:10;4.60;99.90
48162;DHT22;33950;48.154;16.316;2024-02-14T06:04:37;4.60;99.90
48162;DHT22;33950;48.154;16.316;2024-02-14T06:07:03;4.60;99.90
48162;DHT22;33950;48.154;16.316;2024-02-14T06:09:30;4.70;99.90
48162;DHT22;33950;48.154;16.316;2024-02-14T06:11:56;4.70;99.90
48162;DHT22;33950;48.154;16.316;2024-02-14T06:14:22;4.70;99.90
48162;DHT22;33950;48.154;16.316;2024-02-14T06:16:47;4.80;99.90
48162;DHT22;33950;48.154;16.316;2024-02-14T06:19:13;4.90;99.90
48162;DHT22;33950;48.154;16.316;2024-02-14T06:21:40;5.00;99.90
48162;DHT22;33950;48.154;16.316;2024-02-14T06:24:05;5.00;99.90
48162;DHT22;33950;48.154;16.316;2024-02-14T06:26:31;5.00;99.60
48162;DHT22;33950;48.154;16.316;2024-02-14T06:28:58;5.00;99.60
48162;DHT22;33950;48.154;16.316;2024-02-14T06:31:24;5.00;99.60
48162;DHT22;33950;48.154;16.316;2024-02-14T06:33:49;5.00;99.60
48162;DHT22;33950;48.154;16.316;2024-02-14T06:36:16;5.10;99.70
48162;DHT22;33950;48.154;16.316;2024-02-14T06:38:43;5.10;99.60
48162;DHT22;33950;48.154;16.316;2024-02-14T06:41:11;5.00;99.50
48162;DHT22;33950;48.154;16.316;2024-02-14T06:43:37;4.90;99.60
48162;DHT22;33950;48.154;16.316;2024-02-14T06:46:04;4.90;99.80
48162;DHT22;33950;48.154;16.316;2024-02-14T06:48:30;4.90;99.90
48162;DHT22;33950;48.154;16.316;2024-02-14T06:50:55;4.90;99.90
48162;DHT22;33950;48.154;16.316;2024-02-14T06:53:21;5.00;99.80
48162;DHT22;33950;48.154;16.316;2024-02-14T06:55:48;5.10;99.80
48162;DHT22;33950;48.154;16.316;2024-02-14T06:58:14;5.10;99.70
48162;DHT22;33950;48.154;16.316;2024-02-14T07:00:39;5.10;99.70
48162;DHT22;33950;48.154;16.316;2024-02-14T07:03:05;5.10;99.60
48162;DHT22;33950;48.154;16.316;2024-02-14T07:05:31;5.10;99.60
48162;DHT22;33950;48.154;16.316;2024-02-14T07:07:56;5.20;99.60
48162;DHT22;33950;48.154;16.316;2024-02-14T07:10:22;5.20;99.50
48162;DHT22;33950;48.154;16.316;2024-02-14T07:12:49;5.20;99.60
48162;DHT22;33950;48.154;16.316;2024-02-14T07:15:14;5.20;99.70
48162;DHT22;33950;48.154;16.316;2024-02-14T07:17:40;5.20;99.70
48162;DHT22;33950;48.154;16.316;2024-02-14T07:20:06;5.20;99.70
48162;DHT22;33950;48.154;16.316;2024-02-14T07:22:35;5.20;99.80
48162;DHT22;33950;48.154;16.316;2024-02-14T07:25:00;5.30;99.90
48162;DHT22;33950;48.154;16.316;2024-02-14T07:27:26;5.40;99.90
48162;DHT22;33950;48.154;16.316;2024-02-14T07:29:53;5.40;99.90
48162;DHT22;33950;48.154;16.316;2024-02-14T07:32:19;5.40;99.90
48162;DHT22;33950;48.154;16.316;2024-02-14T07:34:45;5.50;99.90
48162;DHT22;33950;48.154;16.316;2024-02-14T07:37:11;5.50;99.90
48162;DHT22;33950;48.154;16.316;2024-02-14T07:39:37;5.40;99.90
48162;DHT22;33950;48.154;16.316;2024-02-14T07:42:03;5.50;99.90
48162;DHT22;33950;48.154;16.316;2024-02-14T07:44:29;5.60;99.90
48162;DHT22;33950;48.154;16.316;2024-02-14T07:46:56;5.60;99.90
48162;DHT22;33950;48.154;16.316;2024-02-14T07:49:21;5.70;99.90
48162;DHT22;33950;48.154;16.316;2024-02-14T07:51:47;5.80;99.90
48162;DHT22;33950;48.154;16.316;2024-02-14T07:54:13;5.90;99.90
48162;DHT22;33950;48.154;16.316;2024-02-14T07:56:39;5.90;99.90
48162;DHT22;33950;48.154;16.316;2024-02-14T07:59:04;6.00;99.90
48162;DHT22;33950;48.154;16.316;2024-02-14T08:01:30;6.00;99.70
48162;DHT22;33950;48.154;16.316;2024-02-14T08:03:57;5.90;99.90
48162;DHT22;33950;48.154;16.316;2024-02-14T08:06:23;6.00;99.90
48162;DHT22;33950;48.154;16.316;2024-02-14T08:08:49;6.10;99.90
48162;DHT22;33950;48.154;16.316;2024-02-14T08:11:19;6.20;99.90
48162;DHT22;33950;48.154;16.316;2024-02-14T08:13:44;6.20;99.90
48162;DHT22;33950;48.154;16.316;2024-02-14T08:16:10;6.30;99.80
48162;DHT22;33950;48.154;16.316;2024-02-14T08:18:36;6.30;99.80
48162;DHT22;33950;48.154;16.316;2024-02-14T08:21:03;6.30;99.90
48162;DHT22;33950;48.154;16.316;2024-02-14T08:23:29;6.40;99.70
48162;DHT22;33950;48.154;16.316;2024-02-14T08:25:55;6.40;99.60
48162;DHT22;33950;48.154;16.316;2024-02-14T08:28:20;6.40;99.50
48162;DHT22;33950;48.154;16.316;2024-02-14T08:30:46;6.40;99.50
48162;DHT22;33950;48.154;16.316;2024-02-14T08:33:12;6.40;99.50
48162;DHT22;33950;48.154;16.316;2024-02-14T08:35:38;6.40;99.50
48162;DHT22;33950;48.154;16.316;2024-02-14T08:38:05;6.40;99.50
48162;DHT22;33950;48.154;16.316;2024-02-14T08:40:32;6.50;99.40
48162;DHT22;33950;48.154;16.316;2024-02-14T08:42:57;6.40;99.50
48162;DHT22;33950;48.154;16.316;2024-02-14T08:45:24;6.40;99.60
48162;DHT22;33950;48.154;16.316;2024-02-14T08:47:50;6.40;99.60
48162;DHT22;33950;48.154;16.316;2024-02-14T08:50:16;6.40;99.70
48162;DHT22;33950;48.154;16.316;2024-02-14T08:52:42;6.50;99.70
48162;DHT22;33950;48.154;16.316;2024-02-14T08:55:09;6.50;99.60
48162;DHT22;33950;48.154;16.316;2024-02-14T08:57:42;6.60;99.70
48162;DHT22;33950;48.154;16.316;2024-02-14T09:00:07;6.60;99.60
48162;DHT22;33950;48.154;16.316;2024-02-14T09:02:33;6.60;99.70
48162;DHT22;33950;48.154;16.316;2024-02-14T09:05:00;6.70;99.90
48162;DHT22;33950;48.154;16.316;2024-02-14T09:07:26;6.70;99.70
48162;DHT22;33950;48.154;16.316;2024-02-14T09:09:52;6.70;99.40
48162;DHT22;33950;48.154;16.316;2024-02-14T09:12:19;6.80;99.40
48162;DHT22;33950;48.154;16.316;2024-02-14T09:14:45;6.90;99.40
48162;DHT22;33950;48.154;16.316;2024-02-14T09:17:10;6.90;99.40
48162;DHT22;33950;48.154;16.316;2024-02-14T09:19:36;7.00;99.50
48162;DHT22;33950;48.154;16.316;2024-02-14T09:22:02;7.10;99.40
48162;DHT22;33950;48.154;16.316;2024-02-14T09:24:31;7.10;99.30
48162;DHT22;33950;48.154;16.316;2024-02-14T09:26:57;7.20;99.20
48162;DHT22;33950;48.154;16.316;2024-02-14T09:29:24;7.20;98.90
48162;DHT22;33950;48.154;16.316;2024-02-14T09:31:50;7.20;98.80
48162;DHT22;33950;48.154;16.316;2024-02-14T09:34:16;7.20;98.70
48162;DHT22;33950;48.154;16.316;2024-02-14T09:36:44;7.20;98.50
48162;DHT22;33950;48.154;16.316;2024-02-14T09:39:10;7.20;98.40
48162;DHT22;33950;48.154;16.316;2024-02-14T09:41:36;7.20;98.50
48162;DHT22;33950;48.154;16.316;2024-02-14T09:44:02;7.30;98.40
48162;DHT22;33950;48.154;16.316;2024-02-14T09:46:30;7.30;98.50
48162;DHT22;33950;48.154;16.316;2024-02-14T09:48:56;7.40;98.50
48162;DHT22;33950;48.154;16.316;2024-02-14T09:51:22;7.50;98.60
48162;DHT22;33950;48.154;16.316;2024-02-14T09:53:49;7.50;98.80
48162;DHT22;33950;48.154;16.316;2024-02-14T09:56:15;7.50;98.90
48162;DHT22;33950;48.154;16.316;2024-02-14T09:58:44;7.60;99.00
48162;DHT22;33950;48.154;16.316;2024-02-14T10:01:10;7.70;99.00
48162;DHT22;33950;48.154;16.316;2024-02-14T10:03:38;7.80;98.80
48162;DHT22;33950;48.154;16.316;2024-02-14T10:06:03;7.90;98.50
48162;DHT22;33950;48.154;16.316;2024-02-14T10:08:29;8.00;98.10
48162;DHT22;33950;48.154;16.316;2024-02-14T10:10:56;8.10;97.70
48162;DHT22;33950;48.154;16.316;2024-02-14T10:13:22;8.20;97.60
48162;DHT22;33950;48.154;16.316;2024-02-14T10:15:48;8.30;97.40
48162;DHT22;33950;48.154;16.316;2024-02-14T10:18:14;8.40;97.50
48162;DHT22;33950;48.154;16.316;2024-02-14T10:20:41;8.40;97.00
48162;DHT22;33950;48.154;16.316;2024-02-14T10:23:10;8.40;96.90
48162;DHT22;33950;48.154;16.316;2024-02-14T10:25:36;8.40;97.00
48162;DHT22;33950;48.154;16.316;2024-02-14T10:28:03;8.50;96.90
48162;DHT22;33950;48.154;16.316;2024-02-14T10:30:29;8.60;96.80
48162;DHT22;33950;48.154;16.316;2024-02-14T10:32:54;8.60;96.50
48162;DHT22;33950;48.154;16.316;2024-02-14T10:35:23;8.60;96.30
48162;DHT22;33950;48.154;16.316;2024-02-14T10:37:50;8.70;96.30
48162;DHT22;33950;48.154;16.316;2024-02-14T10:40:18;8.70;96.10
48162;DHT22;33950;48.154;16.316;2024-02-14T10:42:45;8.80;96.10
48162;DHT22;33950;48.154;16.316;2024-02-14T10:45:11;8.90;95.90
48162;DHT22;33950;48.154;16.316;2024-02-14T10:47:38;9.00;96.00
48162;DHT22;33950;48.154;16.316;2024-02-14T10:50:06;9.30;96.30
48162;DHT22;33950;48.154;16.316;2024-02-14T10:52:32;10.60;95.60
48162;DHT22;33950;48.154;16.316;2024-02-14T10:55:01;11.70;93.70
48162;DHT22;33950;48.154;16.316;2024-02-14T10:57:27;12.50;93.20
48162;DHT22;33950;48.154;16.316;2024-02-14T10:59:54;13.00;91.80
48162;DHT22;33950;48.154;16.316;2024-02-14T11:02:20;13.30;91.50
48162;DHT22;33950;48.154;16.316;2024-02-14T11:04:46;13.50;90.80
48162;DHT22;33950;48.154;16.316;2024-02-14T11:07:12;13.70;90.40
48162;DHT22;33950;48.154;16.316;2024-02-14T11:09:38;13.60;90.30
48162;DHT22;33950;48.154;16.316;2024-02-14T11:12:08;13.60;90.40
48162;DHT22;33950;48.154;16.316;2024-02-14T11:14:36;13.70;90.10
48162;DHT22;33950;48.154;16.316;2024-02-14T11:17:04;13.80;90.00
48162;DHT22;33950;48.154;16.316;2024-02-14T11:19:33;13.70;89.20
48162;DHT22;33950;48.154;16.316;2024-02-14T11:22:09;13.20;89.40
48162;DHT22;33950;48.154;16.316;2024-02-14T11:24:36;12.70;90.00
48162;DHT22;33950;48.154;16.316;2024-02-14T11:27:02;12.30;90.50
48162;DHT22;33950;48.154;16.316;2024-02-14T11:29:29;11.90;90.40
48162;DHT22;33950;48.154;16.316;2024-02-14T11:31:58;11.70;90.80
48162;DHT22;33950;48.154;16.316;2024-02-14T11:34:25;11.60;91.10
48162;DHT22;33950;48.154;16.316;2024-02-14T11:36:51;11.60;91.20
48162;DHT22;33950;48.154;16.316;2024-02-14T11:39:16;11.50;91.30
48162;DHT22;33950;48.154;16.316;2024-02-14T11:41:42;11.40;91.20
48162;DHT22;33950;48.154;16.316;2024-02-14T11:44:08;11.30;91.20
48162;DHT22;33950;48.154;16.316;2024-02-14T11:46:35;11.30;91.30
48162;DHT22;33950;48.154;16.316;2024-02-14T11:49:01;11.40;91.20
48162;DHT22;33950;48.154;16.316;2024-02-14T11:51:27;11.40;91.20
48162;DHT22;33950;48.154;16.316;2024-02-14T11:53:53;11.90;91.30
48162;DHT22;33950;48.154;16.316;2024-02-14T11:56:20;12.30;91.00
48162;DHT22;33950;48.154;16.316;2024-02-14T11:58:46;12.90;90.70
48162;DHT22;33950;48.154;16.316;2024-02-14T12:01:13;12.80;90.10
48162;DHT22;33950;48.154;16.316;2024-02-14T12:03:40;12.40;90.30
48162;DHT22;33950;48.154;16.316;2024-02-14T12:06:06;12.30;90.70
48162;DHT22;33950;48.154;16.316;2024-02-14T12:08:32;12.10;87.30
48162;DHT22;33950;48.154;16.316;2024-02-14T12:10:58;12.00;87.90
48162;DHT22;33950;48.154;16.316;2024-02-14T12:13:24;11.90;87.10
48162;DHT22;33950;48.154;16.316;2024-02-14T12:15:50;11.80;85.00
48162;DHT22;33950;48.154;16.316;2024-02-14T12:18:16;11.80;84.70
48162;DHT22;33950;48.154;16.316;2024-02-14T12:20:43;11.70;82.60
48162;DHT22;33950;48.154;16.316;2024-02-14T12:23:15;11.50;83.10
48162;DHT22;33950;48.154;16.316;2024-02-14T12:25:43;11.40;83.30
48162;DHT22;33950;48.154;16.316;2024-02-14T12:28:12;11.40;83.40
48162;DHT22;33950;48.154;16.316;2024-02-14T12:30:45;11.30;83.10
48162;DHT22;33950;48.154;16.316;2024-02-14T12:33:11;11.30;83.40
48162;DHT22;33950;48.154;16.316;2024-02-14T12:35:36;11.30;83.60
48162;DHT22;33950;48.154;16.316;2024-02-14T12:38:08;11.40;84.10
48162;DHT22;33950;48.154;16.316;2024-02-14T12:40:35;11.50;83.80
48162;DHT22;33950;48.154;16.316;2024-02-14T12:43:00;11.70;83.60
48162;DHT22;33950;48.154;16.316;2024-02-14T12:45:26;11.90;84.30
48162;DHT22;33950;48.154;16.316;2024-02-14T12:47:52;12.00;84.10
48162;DHT22;33950;48.154;16.316;2024-02-14T12:50:18;12.10;83.40
48162;DHT22;33950;48.154;16.316;2024-02-14T12:52:45;12.50;83.80
48162;DHT22;33950;48.154;16.316;2024-02-14T12:55:13;12.80;83.80
48162;DHT22;33950;48.154;16.316;2024-02-14T12:57:38;12.80;83.30
48162;DHT22;33950;48.154;16.316;2024-02-14T13:00:05;12.60;83.80
48162;DHT22;33950;48.154;16.316;2024-02-14T13:02:34;12.50;84.20
48162;DHT22;33950;48.154;16.316;2024-02-14T13:04:59;12.50;84.10
48162;DHT22;33950;48.154;16.316;2024-02-14T13:07:26;12.40;84.50
48162;DHT22;33950;48.154;16.316;2024-02-14T13:09:52;12.30;84.30
48162;DHT22;33950;48.154;16.316;2024-02-14T13:12:19;12.30;84.80
48162;DHT22;33950;48.154;16.316;2024-02-14T13:14:44;12.30;85.00
48162;DHT22;33950;48.154;16.316;2024-02-14T13:17:10;12.40;85.00
48162;DHT22;33950;48.154;16.316;2024-02-14T13:19:36;12.30;85.10
48162;DHT22;33950;48.154;16.316;2024-02-14T13:22:02;12.20;84.70
48162;DHT22;33950;48.154;16.316;2024-02-14T13:24:27;12.00;84.60
48162;DHT22;33950;48.154;16.316;2024-02-14T13:26:53;11.80;85.40
48162;DHT22;33950;48.154;16.316;2024-02-14T13:29:20;11.70;85.70
48162;DHT22;33950;48.154;16.316;2024-02-14T13:31:46;11.70;86.00
48162;DHT22;33950;48.154;16.316;2024-02-14T13:34:12;11.80;86.20
48162;DHT22;33950;48.154;16.316;2024-02-14T13:36:39;12.10;86.00
48162;DHT22;33950;48.154;16.316;2024-02-14T13:39:05;12.50;85.60
48162;DHT22;33950;48.154;16.316;2024-02-14T13:41:31;13.00;84.10
48162;DHT22;33950;48.154;16.316;2024-02-14T13:43:56;13.00;83.50
48162;DHT22;33950;48.154;16.316;2024-02-14T13:46:23;13.10;84.00
48162;DHT22;33950;48.154;16.316;2024-02-14T13:48:51;13.30;83.10
48162;DHT22;33950;48.154;16.316;2024-02-14T13:51:17;13.20;82.40
48162;DHT22;33950;48.154;16.316;2024-02-14T13:53:42;13.00;82.90
48162;DHT22;33950;48.154;16.316;2024-02-14T13:56:08;12.80;83.70
48162;DHT22;33950;48.154;16.316;2024-02-14T13:58:34;12.60;84.10
48162;DHT22;33950;48.154;16.316;2024-02-14T14:01:00;12.30;84.20
48162;DHT22;33950;48.154;16.316;2024-02-14T14:03:27;12.20;84.80
48162;DHT22;33950;48.154;16.316;2024-02-14T14:05:53;12.10;84.70
48162;DHT22;33950;48.154;16.316;2024-02-14T14:08:18;12.00;84.50
48162;DHT22;33950;48.154;16.316;2024-02-14T14:10:44;11.90;84.90
48162;DHT22;33950;48.154;16.316;2024-02-14T14:13:10;12.00;85.20
48162;DHT22;33950;48.154;16.316;2024-02-14T14:15:36;12.00;85.40
48162;DHT22;33950;48.154;16.316;2024-02-14T14:18:01;11.90;85.40
48162;DHT22;33950;48.154;16.316;2024-02-14T14:20:28;11.80;85.60
48162;DHT22;33950;48.154;16.316;2024-02-14T14:22:54;11.70;85.90
48162;DHT22;33950;48.154;16.316;2024-02-14T14:25:20;11.70;85.80
48162;DHT22;33950;48.154;16.316;2024-02-14T14:27:45;11.70;86.00
48162;DHT22;33950;48.154;16.316;2024-02-14T14:30:11;11.60;86.00
48162;DHT22;33950;48.154;16.316;2024-02-14T14:32:38;11.60;85.90
48162;DHT22;33950;48.154;16.316;2024-02-14T14:35:05;11.60;86.30
48162;DHT22;33950;48.154;16.316;2024-02-14T14:37:33;11.50;86.20
48162;DHT22;33950;48.154;16.316;2024-02-14T14:39:59;11.60;86.30
48162;DHT22;33950;48.154;16.316;2024-02-14T14:42:26;11.50;85.40
48162;DHT22;33950;48.154;16.316;2024-02-14T14:44:51;11.40;85.70
48162;DHT22;33950;48.154;16.316;2024-02-14T14:47:17;11.40;86.30
48162;DHT22;33950;48.154;16.316;2024-02-14T14:49:43;11.40;85.70
48162;DHT22;33950;48.154;16.316;2024-02-14T14:52:08;11.40;85.70
48162;DHT22;33950;48.154;16.316;2024-02-14T14:54:35;11.40;86.00
48162;DHT22;33950;48.154;16.316;2024-02-14T14:57:02;11.40;85.70
48162;DHT22;33950;48.154;16.316;2024-02-14T14:59:29;11.40;86.00
48162;DHT22;33950;48.154;16.316;2024-02-14T15:01:55;11.40;86.20
48162;DHT22;33950;48.154;16.316;2024-02-14T15:04:20;11.30;86.60
48162;DHT22;33950;48.154;16.316;2024-02-14T15:06:46;11.20;86.90
48162;DHT22;33950;48.154;16.316;2024-02-14T15:09:12;11.30;87.10
48162;DHT22;33950;48.154;16.316;2024-02-14T15:11:40;11.20;86.90
48162;DHT22;33950;48.154;16.316;2024-02-14T15:14:06;11.20;86.80
48162;DHT22;33950;48.154;16.316;2024-02-14T15:16:32;11.30;86.70
48162;DHT22;33950;48.154;16.316;2024-02-14T15:18:58;11.40;86.50
48162;DHT22;33950;48.154;16.316;2024-02-14T15:21:23;11.50;86.50